SXF weather

Berlin-Schönefeld Airport
Berlin, Brandenburg, Germany

Public forecast

Using degrees Celsius for public forecast. Weather courtesy of forecast.io.

Current aviation weather report (METAR) for Berlin-Schönefeld Airport

Retrieved 2019/11/15 01:20 UTC (6 minutes ago):

EDDB 150120Z 09016KT 9999 BKN014 04/01 Q1009 TEMPO 09015G25KT BKN009

Aviation forecast (TAF) for Berlin-Schönefeld Airport

Retrieved 2019-11-15 00:27 UTC (59 minutes ago):

TAF TAF EDDB 142300Z 1500/1524 08014KT 8000 BKN010 TEMPO 1500/1502 09015G25KT TEMPO 1500/1509 BKN006 PROB30 TEMPO 1500/1507 4500 BR BKN004 BECMG 1502/1505 09015G25KT TEMPO 1513/1517 SCT012 BECMG 1515/1517 10009KT